Flight Track Log - Related Links

Times and Time Zones

All times are in EDT time to prevent confusion due to time zone crossing. See the N59CW flight status page for this flight to view local times or setup timezone preferences in your user account.

Time Position Orientation Groundspeed Altitude Reporting Facility
EDT Latitude Longitude Course Direction KTS km/h meters Rate Location/Type
Sat 21:02:47 32.4500 -83.7333 140° Southeast 109 201 579  Level Atlanta TRACON
Sat 21:03:47 32.4167 -83.7000 140° Southeast 98 182 762 176 Climbing Atlanta TRACON
Sat 21:04:41 32.4000 -83.6833 140° Southeast 99 183 914 193 Climbing Atlanta TRACON
Sat 21:05:41 32.3833 -83.6667 140° Southeast 96 177 1,128 198 Climbing Atlanta TRACON
Sat 21:06:41 32.3667 -83.6500 140° Southeast 98 182 1,311 161 Climbing Atlanta TRACON
Sat 21:07:46 32.3378 -83.6253 144° Southeast 94 174 1,463 176 Climbing Jacksonville Center
Sat 21:08:46 32.3169 -83.6031 138° Southeast 105 195 1,676 183 Climbing Jacksonville Center
Sat 21:09:46 32.2983 -83.5833 138° Southeast 105 195 1,829 152 Climbing Jacksonville Center
Sat 21:10:46 32.2797 -83.5611 135° Southeast 105 195 1,981 152 Climbing Jacksonville Center
Sat 21:11:46 32.2589 -83.5411 141° Southeast 105 195 2,134 152 Climbing Jacksonville Center
Sat 21:12:46 32.2358 -83.5239 148° Southeast 105 195 2,286 152 Climbing Jacksonville Center
Sat 21:13:46 32.2153 -83.5039 141° Southeast 105 195 2,438 152 Climbing Jacksonville Center
Sat 21:14:46 32.1881 -83.5014 176° South 100 185 2,591 137 Climbing Jacksonville Center
Sat 21:15:46 32.1589 -83.4986 175° South 100 185 2,713 76 Climbing Jacksonville Center
Sat 21:16:46 32.1253 -83.4986 180° South 110 204 2,743 15 Climbing Jacksonville Center
Sat 21:17:46 32.0878 -83.4983 180° South 120 222 2,743  Level Jacksonville Center
Sat 21:18:46 32.0481 -83.4956 177° South 139 257 2,743  Level Jacksonville Center
Sat 21:19:46 32.0064 -83.4953 180° South 144 267 2,743  Level Jacksonville Center
Sat 21:20:46 31.9667 -83.4900 174° South 144 267 2,743  Level Jacksonville Center
Sat 21:21:46 31.9272 -83.4800 168° South 144 267 2,743  Level Jacksonville Center
Sat 21:22:46 31.8875 -83.4700 168° South 144 267 2,743  Level Jacksonville Center
Sat 21:23:46 31.8478 -83.4625 171° South 144 267 2,743  Level Jacksonville Center
Sat 21:24:46 31.8083 -83.4547 170° South 144 267 2,743  Level Jacksonville Center
Sat 21:25:46 31.7686 -83.4447 168° South 144 267 2,743  Level Jacksonville Center
Sat 21:26:46 31.7289 -83.4397 174° South 144 267 2,743  Level Jacksonville Center
Sat 21:27:46 31.6956 -83.4322 169° South 144 267 2,743  Level Jacksonville Center
Sat 21:28:46 31.6539 -83.4247 171° South 144 267 2,743  Level Jacksonville Center
Sat 21:29:46 31.6122 -83.4147 168° South 144 267 2,743  Level Jacksonville Center
Sat 21:30:46 31.5725 -83.4072 171° South 144 267 2,743  Level Jacksonville Center
Sat 21:31:46 31.5328 -83.3972 168° South 144 267 2,743  Level Jacksonville Center
Sat 21:32:46 31.4933 -83.3872 168° South 144 267 2,743  Level Jacksonville Center
Sat 21:33:46 31.4536 -83.3797 171° South 144 267 2,743  Level Jacksonville Center
Sat 21:34:46 31.4119 -83.3697 168° South 144 267 2,743  Level Jacksonville Center
Sat 21:35:46 31.3744 -83.3622 170° South 144 267 2,743  Level Jacksonville Center
Sat 21:36:46 31.3347 -83.3522 168° South 144 267 2,743  Level Jacksonville Center
Sat 21:37:46 31.2950 -83.3422 168° South 144 267 2,743  Level Jacksonville Center
Sat 21:38:46 31.2556 -83.3325 168° South 144 267 2,743  Level Jacksonville Center
Sat 21:39:46 31.2158 -83.3250 171° South 144 267 2,743  Level Jacksonville Center
Sat 21:40:46 31.1761 -83.3200 174° South 144 267 2,743  Level Jacksonville Center
Sat 21:41:46 31.1344 -83.3172 177° South 144 267 2,743  Level Jacksonville Center
Sat 21:42:46 31.0969 -83.3100 171° South 144 267 2,743  Level Jacksonville Center
Sat 21:43:46 31.0550 -83.3025 171° South 144 267 2,743  Level Jacksonville Center
Sat 21:44:46 31.0156 -83.2950 171° South 144 267 2,743  Level Jacksonville Center
Sat 21:45:46 30.9778 -83.2875 170° South 144 267 2,743  Level Jacksonville Center
Sat 21:46:46 30.9361 -83.2825 174° South 144 267 2,743  Level Jacksonville Center
Sat 21:47:46 30.8964 -83.2703 165° South 144 267 2,743  Level Jacksonville Center
Sat 21:48:46 30.8569 -83.2603 168° South 144 267 2,743  Level Jacksonville Center
Sat 21:49:46 30.8131 -83.2556 175° South 144 267 2,743  Level Jacksonville Center
Sat 21:50:46 30.7756 -83.2481 170° South 144 267 2,743  Level Jacksonville Center
Sat 21:51:46 30.7336 -83.2358 166° South 144 267 2,743  Level Jacksonville Center
Sat 21:52:46 30.6961 -83.2258 167° South 144 267 2,743  Level Jacksonville Center
Sat 21:53:46 30.6567 -83.2161 168° South 144 267 2,743  Level Jacksonville Center
Sat 21:54:46 30.6147 -83.2064 169° South 144 267 2,743  Level Jacksonville Center
Sat 21:55:46 30.5772 -83.1992 171° South 144 267 2,743  Level Jacksonville Center
Sat 21:56:46 30.5375 -83.1917 171° South 144 267 2,743  Level Jacksonville Center
Sat 21:57:46 30.4981 -83.1819 168° South 144 267 2,743  Level Jacksonville Center
Sat 21:58:46 30.4561 -83.1769 174° South 144 267 2,743  Level Jacksonville Center
Sat 21:59:46 30.4167 -83.1694 171° South 144 267 2,743  Level Jacksonville Center
Sat 22:00:46 30.3789 -83.1622 171° South 144 267 2,743  Level Jacksonville Center
Sat 22:01:46 30.3372 -83.1500 166° South 144 267 2,743  Level Jacksonville Center
Sat 22:02:46 30.2975 -83.1428 171° South 144 267 2,743  Level Jacksonville Center
Sat 22:03:46 30.2558 -83.1378 174° South 144 267 2,743  Level Jacksonville Center
Sat 22:04:46 30.2161 -83.1353 177° South 149 275 2,743  Level Jacksonville Center
Sat 22:05:46 30.1767 -83.1233 165° South 149 275 2,743  Level Jacksonville Center
Sat 22:06:46 30.1347 -83.1158 171° South 149 275 2,743  Level Jacksonville Center
Sat 22:07:46 30.0931 -83.1086 171° South 149 275 2,743  Level Jacksonville Center
Sat 22:08:46 30.0514 -83.1014 171° South 149 275 2,743  Level Jacksonville Center
Sat 22:09:46 30.0117 -83.0917 168° South 149 275 2,743  Level Jacksonville Center
Sat 22:10:46 29.9719 -83.0819 168° South 149 275 2,743  Level Jacksonville Center
Sat 22:11:46 29.9344 -83.0747 171° South 144 267 2,743  Level Jacksonville Center
Sat 22:12:46 29.8928 -83.0650 169° South 144 267 2,743  Level Jacksonville Center
Sat 22:13:46 29.8550 -83.0556 168° South 150 278 2,743  Level Jacksonville Center
Sat 22:14:46 29.8114 -83.0506 174° South 150 278 2,743  Level Jacksonville Center
Sat 22:15:46 29.7736 -83.0433 171° South 145 269 2,743  Level Jacksonville Center
Sat 22:16:46 29.7300 -83.0361 172° South 145 269 2,743  Level Jacksonville Center
Sat 22:17:46 29.6903 -83.0289 171° South 145 269 2,743  Level Jacksonville Center
Sat 22:18:46 29.6486 -83.0192 169° South 145 269 2,743  Level Jacksonville Center
Sat 22:19:46 29.6089 -83.0097 168° South 150 278 2,743  Level Jacksonville Center
Sat 22:20:46 29.5692 -83.0047 174° South 143 266 2,743  Level Jacksonville Center
Sat 22:21:46 29.5294 -82.9928 165° South 153 283 2,743  Level Jacksonville Center
Sat 22:22:46 29.4878 -82.9881 174° South 147 272 2,743  Level Jacksonville Center
Sat 22:23:46 29.4503 -82.9833 174° South 152 282 2,743  Level Jacksonville Center
Sat 22:24:46 29.4083 -82.9761 171° South 152 282 2,743  Level Jacksonville Center
Sat 22:25:46 29.3708 -82.9664 167° South 152 282 2,743  Level Jacksonville Center
Sat 22:26:46 29.3292 -82.9569 169° South 147 272 2,743 -15 Level Jacksonville Center
Sat 22:27:46 29.2875 -82.9450 166° South 147 272 2,713  Descending Jacksonville Center
Sat 22:28:46 29.2478 -82.9378 171° South 147 272 2,743 15 Climbing Jacksonville Center
Sat 22:29:46 29.2081 -82.9306 171° South 147 272 2,743  Level Jacksonville Center
Sat 22:30:46 29.1683 -82.9211 168° South 147 272 2,743  Level Jacksonville Center
Sat 22:31:46 29.1267 -82.9164 174° South 147 272 2,743 -46 Level Jacksonville Center
Sat 22:32:46 29.0850 -82.9117 174° South 147 272 2,652 -76 Descending Jacksonville Center
Sat 22:33:46 29.0431 -82.9019 169° South 147 272 2,591 -122 Descending Jacksonville Center
Sat 22:34:46 29.0036 -82.8950 171° South 147 272 2,408 -152 Descending Jacksonville Center
Sat 22:35:46 28.9617 -82.8856 169° South 147 272 2,286 -137 Descending Jacksonville Center
Sat 22:36:46 28.9222 -82.8806 174° South 147 272 2,134 -183 Descending Jacksonville Center
Sat 22:37:46 28.8825 -82.8689 166° South 147 272 1,920 -166 Descending Jacksonville Center
Sat 22:39:42 28.8000 -82.8500 169° South 144 267 1,646 -135 Descending Tampa TRACON
Sat 22:40:42 28.7667 -82.8500 180° South 148 274 1,524 -61 Descending Tampa TRACON
Sat 22:41:42 28.7167 -82.8333 164° South 145 269 1,524  Level Tampa TRACON
Sat 22:42:42 28.6833 -82.8333 180° South 144 267 1,524  Level Tampa TRACON
Sat 22:43:43 28.6333 -82.8333 180° South 146 270 1,524  Level Tampa TRACON
Sat 22:44:43 28.6000 -82.8167 156° South 147 272 1,524 15 Level Tampa TRACON
Sat 22:45:43 28.5500 -82.8167 180° South 149 275 1,554  Climbing Tampa TRACON
Sat 22:46:43 28.5167 -82.8000 156° South 147 272 1,524 -15 Descending Tampa TRACON
Sat 22:47:43 28.4833 -82.8000 180° South 148 274 1,524  Level Tampa TRACON
Sat 22:48:43 28.4333 -82.7833 164° South 150 278 1,524  Level Tampa TRACON
Sat 22:49:43 28.4000 -82.7833 180° South 146 270 1,524  Level Tampa TRACON
Sat 22:50:43 28.3500 -82.7667 164° South 145 269 1,524 -76 Level Tampa TRACON
Sat 22:51:43 28.3167 -82.7667 180° South 147 272 1,372 -152 Descending Tampa TRACON
Sat 22:52:43 28.2667 -82.7500 164° South 147 272 1,219 -168 Descending Tampa TRACON
Sat 22:53:43 28.2333 -82.7500 180° South 144 267 1,036 -183 Descending Tampa TRACON
Sat 22:54:43 28.2000 -82.7500 180° South 148 274 853 -107 Descending Tampa TRACON
Sat 22:55:43 28.1500 -82.7333 164° South 141 261 823 -30 Descending Tampa TRACON
Sat 22:56:43 28.1167 -82.7333 180° South 124 230 792 -61 Descending Tampa TRACON
Sat 22:57:43 28.0833 -82.7333 180° South 119 220 701 -91 Descending Tampa TRACON

Login

Don't have an account? Register now (free) for customized features, flight alerts, and more!